createdAt,value
2019-03-21T00:01:55.804Z,29.1
2019-03-21T00:07:01.270Z,31.2
2019-03-21T00:12:06.423Z,32.1
2019-03-21T00:17:11.884Z,28.9
2019-03-21T00:22:16.864Z,34.4
2019-03-21T00:27:22.473Z,31
2019-03-21T00:32:27.999Z,27.9
2019-03-21T00:37:33.568Z,28.6
2019-03-21T00:42:37.122Z,28.1
2019-03-21T00:47:42.492Z,28.7
2019-03-21T00:52:47.704Z,33.8
2019-03-21T00:57:52.968Z,36.2
2019-03-21T01:02:57.939Z,34.9
2019-03-21T01:08:03.143Z,42.6
2019-03-21T01:13:08.753Z,35.6
2019-03-21T01:18:14.371Z,34.5
2019-03-21T01:23:19.543Z,28.6
2019-03-21T01:28:25.019Z,28.9
2019-03-21T01:33:30.388Z,31.2
2019-03-21T01:38:36.420Z,30.6
2019-03-21T01:43:41.713Z,57.2
2019-03-21T01:48:47.253Z,32.2
2019-03-21T01:53:52.330Z,32.5
2019-03-21T01:58:56.048Z,31.5
2019-03-21T02:04:01.279Z,29.4
2019-03-21T02:09:06.959Z,27.7
2019-03-21T02:14:10.607Z,34.1
2019-03-21T02:19:15.819Z,33.2
2019-03-21T02:24:19.537Z,30.8
2019-03-21T02:29:25.121Z,29.7
2019-03-21T02:34:30.804Z,31
2019-03-21T02:39:36.148Z,31.4
2019-03-21T02:44:41.503Z,32.8
2019-03-21T02:49:47.347Z,29.1
2019-03-21T02:54:52.432Z,36.6
2019-03-21T02:59:57.678Z,31.7
2019-03-21T03:05:02.913Z,29.1
2019-03-21T03:10:08.839Z,30.3
2019-03-21T03:15:22.312Z,31.2
2019-03-21T03:20:18.523Z,33.5
2019-03-21T03:25:23.492Z,32.5
2019-03-21T03:30:29.092Z,27.6
2019-03-21T03:35:34.465Z,35.8
2019-03-21T03:40:39.775Z,35
2019-03-21T03:45:45.005Z,28.8
2019-03-21T03:50:48.804Z,28.9
2019-03-21T03:55:53.913Z,36.1
2019-03-21T04:00:57.912Z,56.9
2019-03-21T04:06:02.986Z,46
2019-03-21T04:11:08.423Z,44.4
2019-03-21T04:16:13.733Z,43.8
2019-03-21T04:21:17.536Z,39.6
2019-03-21T04:26:23.003Z,32.2
2019-03-21T04:31:28.688Z,34.3
2019-03-21T04:36:33.711Z,33.1
2019-03-21T04:41:39.074Z,37.2
2019-03-21T04:46:44.363Z,33.9
2019-03-21T04:51:49.705Z,63.2
2019-03-21T04:56:53.521Z,62.4
2019-03-21T05:01:58.847Z,45.1
2019-03-21T05:07:03.838Z,44
2019-03-21T05:12:09.232Z,42.5
2019-03-21T05:17:14.320Z,46.5
2019-03-21T05:22:19.545Z,51.4
2019-03-21T05:27:24.581Z,62.7
2019-03-21T05:32:29.896Z,55.9
2019-03-21T05:37:35.107Z,48.7
2019-03-21T05:42:40.553Z,95.8
2019-03-21T05:47:45.784Z,122
2019-03-21T05:52:51.327Z,70.6
2019-03-21T05:57:56.356Z,58.8
2019-03-21T06:03:01.594Z,56.9
2019-03-21T06:08:06.865Z,71.8
2019-03-21T06:13:12.297Z,82
2019-03-21T06:18:17.397Z,93.9
2019-03-21T06:23:22.905Z,76.9
2019-03-21T06:28:28.038Z,73.1
2019-03-21T06:33:33.459Z,73.8
2019-03-21T06:38:38.649Z,67.8
2019-03-21T06:43:44.169Z,76.8
2019-03-21T06:48:49.183Z,48.6
2019-03-21T06:53:54.599Z,38.5
2019-03-21T06:58:59.870Z,32.2
2019-03-21T07:04:07.219Z,29.8
2019-03-21T07:09:12.813Z,41.6
2019-03-21T07:14:18.301Z,51.3
2019-03-21T07:19:23.757Z,38.1
2019-03-21T07:24:28.992Z,30.3
2019-03-21T07:29:34.352Z,28.8
2019-03-21T07:34:38.509Z,33.3
2019-03-21T07:39:43.592Z,28.2
2019-03-21T07:44:48.891Z,30.5
2019-03-21T07:49:53.931Z,28.1
2019-03-21T07:54:59.342Z,27.8
2019-03-21T08:00:05.146Z,26.6
2019-03-21T08:05:11.110Z,28
2019-03-21T08:10:16.176Z,26.5
2019-03-21T08:15:24.004Z,23.8
2019-03-21T08:20:29.718Z,29
2019-03-21T08:25:35.232Z,19.6
2019-03-21T08:30:40.284Z,25.3
2019-03-21T08:35:45.529Z,27.9
2019-03-21T08:40:51.285Z,23.3
2019-03-21T08:45:56.494Z,23.5
2019-03-21T08:51:07.984Z,26.9
2019-03-21T08:56:02.922Z,19.3
2019-03-21T09:01:08.311Z,22.4
2019-03-21T09:06:13.393Z,19.5
2019-03-21T09:11:18.777Z,19.5
2019-03-21T09:16:22.889Z,18.2
2019-03-21T09:21:28.322Z,19.8
2019-03-21T09:26:33.604Z,19.8
2019-03-21T09:31:39.017Z,16.7
2019-03-21T09:36:43.260Z,16
2019-03-21T09:41:48.630Z,17.8
2019-03-21T09:46:54.236Z,13.8
2019-03-21T09:52:01.003Z,17.7
2019-03-21T09:57:06.484Z,13.8
2019-03-21T10:02:11.575Z,16.1
2019-03-21T10:07:16.962Z,14.9
2019-03-21T10:12:21.982Z,17.1
2019-03-21T10:17:27.330Z,11.9
2019-03-21T10:22:32.688Z,14
2019-03-21T10:27:37.770Z,15.8
2019-03-21T10:32:43.101Z,13
2019-03-21T10:37:48.569Z,13.5
2019-03-21T10:42:53.620Z,16.3
2019-03-21T10:47:58.885Z,18.5
2019-03-21T10:53:03.829Z,14
2019-03-21T10:58:09.252Z,13.7
2019-03-21T11:03:14.406Z,13.3
2019-03-21T11:08:18.295Z,14.3
2019-03-21T11:13:23.420Z,13.7
2019-03-21T11:18:35.881Z,13.1
2019-03-21T11:23:33.008Z,26.1
2019-03-21T11:28:38.084Z,12.6
2019-03-21T11:33:43.237Z,18.3
2019-03-21T11:38:48.552Z,13.6
2019-03-21T11:43:53.880Z,16.1
2019-03-21T11:48:59.233Z,17.2
2019-03-21T11:54:04.595Z,15.7
2019-03-21T11:59:10.105Z,12
2019-03-21T12:04:15.024Z,18.7
2019-03-21T12:09:19.549Z,14.7
2019-03-21T12:14:24.543Z,15.3
2019-03-21T12:19:29.690Z,21.2
2019-03-21T12:24:33.273Z,13.4
2019-03-21T12:29:38.486Z,12.6
2019-03-21T12:34:43.598Z,12.5
2019-03-21T12:39:49.175Z,13.1
2019-03-21T13:00:04.126Z,15
2019-03-21T13:05:09.279Z,12.9
2019-03-21T13:10:14.403Z,15.1
2019-03-21T13:15:29.398Z,11
2019-03-21T13:20:25.199Z,16.5
2019-03-21T13:25:30.544Z,39.8
2019-03-21T13:30:35.648Z,20.5
2019-03-21T13:35:41.386Z,21.1
2019-03-21T13:40:46.802Z,19.8
2019-03-21T13:45:52.366Z,13.3
2019-03-21T13:50:57.746Z,24.8
2019-03-21T13:56:02.799Z,26.8
2019-03-21T14:01:08.339Z,16.6
2019-03-21T14:06:13.600Z,16.7
2019-03-21T14:11:19.376Z,29.8
2019-03-21T14:16:24.882Z,18.1
2019-03-21T14:21:30.530Z,14
2019-03-21T14:26:35.682Z,13.2
2019-03-21T14:31:40.980Z,21.2
2019-03-21T14:36:46.360Z,18.2
2019-03-21T14:41:51.540Z,14.8
2019-03-21T14:46:56.991Z,18.9
2019-03-21T14:52:02.780Z,17.2
2019-03-21T14:57:08.348Z,15.3
2019-03-21T15:02:13.952Z,19.4
2019-03-21T15:07:19.040Z,12.9
2019-03-21T15:12:24.138Z,13.7
2019-03-21T15:17:32.590Z,17.2
2019-03-21T15:22:38.369Z,14.9
2019-03-21T15:27:44.201Z,19.3
2019-03-21T15:32:49.106Z,17.9
2019-03-21T15:37:54.683Z,38.2
2019-03-21T15:43:00.102Z,17.2
2019-03-21T15:48:05.874Z,16.2
2019-03-21T15:53:10.915Z,31.2
2019-03-21T15:58:14.958Z,24.6
2019-03-21T16:03:20.355Z,17.9
2019-03-21T16:08:27.289Z,21.5
2019-03-21T16:13:32.606Z,17.9
2019-03-21T16:18:36.666Z,27.2
2019-03-21T16:23:41.986Z,23.8
2019-03-21T16:28:47.434Z,33
2019-03-21T16:33:52.626Z,35.3
2019-03-21T16:38:57.997Z,38.5
2019-03-21T16:44:02.929Z,47.4
2019-03-21T16:49:10.882Z,46.8
2019-03-21T16:54:17.223Z,81.8
2019-03-21T16:59:23.031Z,111.3
2019-03-21T17:04:28.267Z,61.5
2019-03-21T17:09:33.380Z,96.8
2019-03-21T17:14:41.827Z,90.6
2019-03-21T17:19:47.085Z,97.1
2019-03-21T17:24:52.334Z,90.9
2019-03-21T17:29:57.581Z,107.4
2019-03-21T17:35:01.124Z,103.8
2019-03-21T17:40:06.634Z,111.4
2019-03-21T17:45:12.400Z,98.4
2019-03-21T17:50:18.152Z,119.9
2019-03-21T17:55:18.286Z,103.4
2019-03-21T18:00:22.128Z,89.9
2019-03-21T18:05:27.410Z,98.8
2019-03-21T18:15:38.425Z,78.6
2019-03-21T18:20:43.567Z,78.1
2019-03-21T18:25:48.834Z,87.2
2019-03-21T18:30:54.612Z,80.4
2019-03-21T18:35:59.905Z,89.3
2019-03-21T18:41:05.359Z,56.1
2019-03-21T18:46:10.980Z,55.9
2019-03-21T18:51:16.606Z,51.2
2019-03-21T18:56:22.131Z,89.3
2019-03-21T19:01:27.461Z,99.8
2019-03-21T19:06:35.471Z,95.5
2019-03-21T19:11:40.707Z,89
2019-03-21T19:16:46.401Z,87.7
2019-03-21T19:21:51.693Z,93.8
2019-03-21T19:26:59.318Z,103.1
2019-03-21T19:32:04.983Z,134.6
2019-03-21T19:37:10.474Z,120
2019-03-21T19:42:15.992Z,126.3
2019-03-21T19:47:24.344Z,120.1
2019-03-21T19:52:25.187Z,112.5
2019-03-21T19:57:30.062Z,93
2019-03-21T20:02:38.008Z,73.5
2019-03-21T20:07:43.840Z,79.4
2019-03-21T20:12:44.421Z,75.3
2019-03-21T20:17:49.633Z,89.7
2019-03-21T20:22:55.390Z,97.6
2019-03-21T20:28:00.698Z,95.5
2019-03-21T20:33:06.369Z,88.9
2019-03-21T20:38:11.432Z,81.9
2019-03-21T20:43:15.670Z,89.5
2019-03-21T20:48:24.071Z,81.2
2019-03-21T20:53:30.816Z,78.6
2019-03-21T20:58:36.980Z,81.7
2019-03-21T21:03:42.484Z,83.4
2019-03-21T21:08:47.663Z,86.3
2019-03-21T21:13:52.877Z,92.3
2019-03-21T21:18:58.297Z,90.5
2019-03-21T21:24:03.676Z,104.3
2019-03-21T21:29:08.898Z,103.8
2019-03-21T21:34:14.062Z,111.9
2019-03-21T21:39:19.239Z,121.4
2019-03-21T21:44:24.491Z,126.6
2019-03-21T21:49:29.820Z,125.7
2019-03-21T21:54:35.415Z,132.3
2019-03-21T21:59:40.820Z,138.3
2019-03-21T22:04:46.231Z,118.7
2019-03-21T22:09:51.431Z,118.2
2019-03-21T22:14:56.936Z,94.3
2019-03-21T22:20:02.124Z,91.5
2019-03-21T22:25:06.149Z,105
2019-03-21T22:30:11.430Z,110.2
2019-03-21T22:35:16.925Z,98.9
2019-03-21T22:40:20.685Z,94.3
2019-03-21T22:45:26.087Z,90.2
2019-03-21T22:50:31.400Z,90.8
2019-03-21T22:55:36.851Z,81.2
2019-03-21T23:00:42.260Z,74.1
2019-03-21T23:05:45.981Z,71.5
2019-03-21T23:10:51.226Z,69.9
2019-03-21T23:15:56.799Z,70.1
2019-03-21T23:21:02.334Z,90
2019-03-21T23:26:07.511Z,62
2019-03-21T23:31:13.117Z,68.4
2019-03-21T23:36:16.924Z,67.4
2019-03-21T23:41:22.075Z,64.5
2019-03-21T23:46:27.383Z,61
2019-03-21T23:51:33.143Z,53.9
2019-03-21T23:56:38.967Z,57.6
